Time;durP1;ratioP1;P1;durP2;ratioP2;P2;SDS_P1;SDS_P2;PMS_P1;PMS_P2;Temp;Humidity;BMP_temperature;BMP_pressure;BME280_temperature;BME280_humidity;BME280_pressure;Samples;Min_cycle;Max_cycle;Signal;HPM_P1;HPM_P2
2023/06/01 00:02:00;;;;;;;27.15;14.15;;;;;;;;;;5071386;28;20025;-62
2023/06/01 00:04:26;;;;;;;27.73;14.20;;;;;;;;;;5054785;28;20077;-61
2023/06/01 00:06:52;;;;;;;31.15;14.77;;;;;;;;;;5071069;28;20029;-62
2023/06/01 00:09:19;;;;;;;27.80;14.25;;;;;;;;;;5055187;28;20085;-63
2023/06/01 00:11:45;;;;;;;27.10;14.55;;;;;;;;;;5055498;28;20021;-62
2023/06/01 00:14:11;;;;;;;24.77;13.90;;;;;;;;;;5070729;28;20021;-59
2023/06/01 00:16:37;;;;;;;25.83;15.73;;;;;;;;;;5054513;28;20037;-62
2023/06/01 00:19:03;;;;;;;25.52;14.30;;;;;;;;;;5056469;28;20178;-61
2023/06/01 00:21:31;;;;;;;26.13;14.65;;;;;;;;;;5072569;28;20021;-61
2023/06/01 00:23:57;;;;;;;27.10;15.20;;;;;;;;;;5057104;28;20519;-62
2023/06/01 00:26:23;;;;;;;24.33;13.25;;;;;;;;;;5072749;28;20037;-60
2023/06/01 00:28:49;;;;;;;24.02;14.35;;;;;;;;;;5058169;28;20094;-62
2023/06/01 00:31:15;;;;;;;27.00;15.80;;;;;;;;;;5057899;28;20024;-64
2023/06/01 00:33:41;;;;;;;24.45;13.55;;;;;;;;;;5071666;28;20447;-59
2023/06/01 00:36:07;;;;;;;24.20;14.68;;;;;;;;;;5058716;28;20076;-61
2023/06/01 00:38:34;;;;;;;23.45;14.18;;;;;;;;;;5025039;22;20507;-59
2023/06/01 00:41:00;;;;;;;23.58;13.40;;;;;;;;;;5006331;28;20030;-58
2023/06/01 00:43:26;;;;;;;27.02;14.40;;;;;;;;;;5011751;28;20030;-59
2023/06/01 00:45:52;;;;;;;29.92;15.38;;;;;;;;;;5010899;28;20030;-57
2023/06/01 00:48:18;;;;;;;28.92;15.70;;;;;;;;;;5011490;28;20487;-57
2023/06/01 00:50:45;;;;;;;29.90;15.02;;;;;;;;;;4994012;28;20021;-58
2023/06/01 00:53:15;;;;;;;26.88;15.32;;;;;;;;;;5000439;28;20394;-57
2023/06/01 00:55:41;;;;;;;25.10;14.82;;;;;;;;;;5010159;28;20022;-59
2023/06/01 00:58:08;;;;;;;26.75;15.75;;;;;;;;;;5011873;28;20380;-56
2023/06/01 01:00:34;;;;;;;30.42;15.38;;;;;;;;;;5011635;28;20623;-58
2023/06/01 01:03:07;;;;;;;29.08;14.93;;;;;;;;;;5010449;28;20084;-59
2023/06/01 01:05:33;;;;;;;28.10;14.02;;;;;;;;;;4992767;28;20022;-59
2023/06/01 01:08:20;;;;;;;24.27;14.85;;;;;;;;;;4993802;28;20026;-58
2023/06/01 01:11:08;;;;;;;23.95;14.35;;;;;;;;;;5011140;28;20101;-59
2023/06/01 01:13:47;;;;;;;25.38;15.13;;;;;;;;;;5011113;28;20030;-59
2023/06/01 01:16:33;;;;;;;23.55;14.20;;;;;;;;;;5010724;28;20105;-58
2023/06/01 01:19:34;;;;;;;25.85;14.15;;;;;;;;;;4993296;28;20137;-58
2023/06/01 01:22:08;;;;;;;27.90;15.45;;;;;;;;;;4932240;28;20034;-55
2023/06/01 01:24:52;;;;;;;26.25;14.23;;;;;;;;;;5010614;28;20544;-59
2023/06/01 01:27:24;;;;;;;24.52;14.65;;;;;;;;;;5015220;28;20026;-59
2023/06/01 01:29:52;;;;;;;26.63;14.70;;;;;;;;;;5015160;28;20394;-58
2023/06/01 01:32:18;;;;;;;23.65;14.13;;;;;;;;;;5015037;28;20449;-57
2023/06/01 01:34:45;;;;;;;26.05;13.65;;;;;;;;;;5014138;28;20026;-58
2023/06/01 01:37:11;;;;;;;23.92;13.65;;;;;;;;;;5014929;28;20026;-59
2023/06/01 01:39:37;;;;;;;22.25;13.32;;;;;;;;;;4997468;28;20453;-60
2023/06/01 01:42:03;;;;;;;23.55;13.43;;;;;;;;;;5014981;28;20026;-61
2023/06/01 01:44:29;;;;;;;29.25;14.82;;;;;;;;;;5014036;28;20406;-59
2023/06/01 01:47:34;;;;;;;23.13;14.10;;;;;;;;;;5014698;28;20441;-59
2023/06/01 01:50:07;;;;;;;23.10;14.15;;;;;;;;;;4896918;29;20032;-60
2023/06/01 01:52:34;;;;;;;21.55;14.27;;;;;;;;;;4881409;29;20434;-59
2023/06/01 01:55:01;;;;;;;25.55;14.07;;;;;;;;;;4957723;28;20220;-57
2023/06/01 01:57:28;;;;;;;26.10;14.15;;;;;;;;;;5014543;28;20083;-58
2023/06/01 01:59:54;;;;;;;21.95;12.63;;;;;;;;;;5014547;28;20038;-60
2023/06/01 02:02:20;;;;;;;23.50;14.07;;;;;;;;;;5012785;28;20025;-57
2023/06/01 02:04:46;;;;;;;21.38;13.35;;;;;;;;;;4996149;28;20133;-59
2023/06/01 02:07:12;;;;;;;22.42;13.10;;;;;;;;;;5014269;28;20061;-60
2023/06/01 02:09:39;;;;;;;24.50;13.07;;;;;;;;;;5013896;28;20091;-57
2023/06/01 02:12:06;;;;;;;22.92;13.07;;;;;;;;;;5014197;28;20486;-58
2023/06/01 02:14:32;;;;;;;22.75;12.45;;;;;;;;;;5013542;28;20097;-60
2023/06/01 02:17:00;;;;;;;24.33;12.50;;;;;;;;;;5014048;28;20034;-58
2023/06/01 02:19:26;;;;;;;21.05;12.75;;;;;;;;;;5014385;28;20102;-60
2023/06/01 02:21:52;;;;;;;22.15;12.35;;;;;;;;;;5014197;28;20555;-60
2023/06/01 02:24:18;;;;;;;21.77;12.68;;;;;;;;;;4995816;28;20034;-60
2023/06/01 02:26:47;;;;;;;22.17;12.40;;;;;;;;;;5013947;28;20037;-60
2023/06/01 02:29:13;;;;;;;21.10;12.27;;;;;;;;;;4996374;28;20036;-59
2023/06/01 02:31:40;;;;;;;21.92;12.02;;;;;;;;;;5013955;28;20026;-59
2023/06/01 02:34:06;;;;;;;22.50;13.40;;;;;;;;;;5013504;28;20497;-59
2023/06/01 02:36:32;;;;;;;22.30;13.27;;;;;;;;;;5013596;28;20022;-55
2023/06/01 02:38:59;;;;;;;21.65;13.15;;;;;;;;;;5014012;28;20088;-59
2023/06/01 02:41:25;;;;;;;21.63;12.05;;;;;;;;;;5013939;28;20052;-60
2023/06/01 02:43:51;;;;;;;25.92;13.77;;;;;;;;;;5013609;28;20057;-61
2023/06/01 02:46:18;;;;;;;20.90;12.68;;;;;;;;;;5013371;28;20038;-60
2023/06/01 02:48:44;;;;;;;22.08;12.73;;;;;;;;;;5013443;28;20105;-59
2023/06/01 02:51:10;;;;;;;22.08;14.02;;;;;;;;;;5013591;28;20076;-60
2023/06/01 02:53:36;;;;;;;23.35;13.00;;;;;;;;;;4996341;28;20394;-59
2023/06/01 02:56:02;;;;;;;24.95;12.82;;;;;;;;;;5012639;28;20022;-58
2023/06/01 02:58:29;;;;;;;22.75;13.02;;;;;;;;;;5013437;28;20018;-58
2023/06/01 03:00:57;;;;;;;26.63;13.45;;;;;;;;;;4995846;28;20424;-59
2023/06/01 03:03:23;;;;;;;23.77;12.93;;;;;;;;;;5011532;28;20048;-58
2023/06/01 03:05:49;;;;;;;24.27;12.68;;;;;;;;;;4994988;28;20037;-57
2023/06/01 03:08:16;;;;;;;23.48;12.70;;;;;;;;;;5013179;28;20022;-59
2023/06/01 03:10:42;;;;;;;22.95;12.63;;;;;;;;;;5013399;28;20040;-58
2023/06/01 03:13:08;;;;;;;23.58;12.52;;;;;;;;;;5013269;28;20083;-59
2023/06/01 03:15:34;;;;;;;23.95;12.73;;;;;;;;;;5012539;28;20422;-59
2023/06/01 03:18:03;;;;;;;23.92;12.10;;;;;;;;;;4995826;28;20030;-59
2023/06/01 03:20:29;;;;;;;23.45;12.45;;;;;;;;;;5013776;28;20083;-59
2023/06/01 03:22:55;;;;;;;24.60;13.15;;;;;;;;;;5013322;28;20394;-59
2023/06/01 03:25:22;;;;;;;23.45;13.73;;;;;;;;;;5012522;28;20025;-60
2023/06/01 03:27:48;;;;;;;19.55;11.80;;;;;;;;;;5013025;28;20151;-59
2023/06/01 03:30:14;;;;;;;23.42;12.70;;;;;;;;;;5012780;28;20054;-59
2023/06/01 03:32:41;;;;;;;25.48;12.88;;;;;;;;;;5012775;28;20045;-57
2023/06/01 03:35:08;;;;;;;23.10;12.18;;;;;;;;;;5012093;28;20145;-56
2023/06/01 03:37:35;;;;;;;23.58;12.90;;;;;;;;;;5012278;28;20033;-59
2023/06/01 03:40:09;;;;;;;27.17;12.63;;;;;;;;;;5012652;28;20383;-59
2023/06/01 03:42:35;;;;;;;23.42;12.05;;;;;;;;;;5012641;28;20402;-57
2023/06/01 03:45:04;;;;;;;23.40;12.82;;;;;;;;;;5011922;28;20040;-59
2023/06/01 03:47:30;;;;;;;25.08;12.73;;;;;;;;;;4994691;28;20030;-59
2023/06/01 03:49:59;;;;;;;25.10;12.52;;;;;;;;;;4994946;28;20414;-59
2023/06/01 03:52:34;;;;;;;24.33;12.57;;;;;;;;;;5012784;28;20018;-57
2023/06/01 03:55:10;;;;;;;21.88;12.05;;;;;;;;;;5011514;28;20026;-60
2023/06/01 03:57:36;;;;;;;23.08;12.50;;;;;;;;;;5012318;28;20025;-59
2023/06/01 04:00:08;;;;;;;25.58;12.90;;;;;;;;;;5012155;28;20103;-59
2023/06/01 04:02:35;;;;;;;29.65;13.75;;;;;;;;;;5010687;28;20045;-60
2023/06/01 04:05:01;;;;;;;26.40;12.85;;;;;;;;;;5011532;28;20033;-58
2023/06/01 04:07:27;;;;;;;24.48;12.43;;;;;;;;;;4994538;28;20029;-60
2023/06/01 04:09:53;;;;;;;21.67;12.45;;;;;;;;;;5012132;28;20483;-60
2023/06/01 04:12:20;;;;;;;25.27;12.98;;;;;;;;;;4994407;28;20030;-59
2023/06/01 04:14:46;;;;;;;25.20;12.73;;;;;;;;;;5011173;28;20022;-60
2023/06/01 04:17:12;;;;;;;25.05;13.52;;;;;;;;;;5011575;28;20022;-59
2023/06/01 04:19:39;;;;;;;25.65;12.90;;;;;;;;;;5011983;28;20102;-56
2023/06/01 04:22:05;;;;;;;26.23;12.55;;;;;;;;;;5011752;28;20111;-60
2023/06/01 04:24:31;;;;;;;22.15;12.35;;;;;;;;;;5010961;28;20022;-58
2023/06/01 04:26:58;;;;;;;22.77;12.30;;;;;;;;;;4994346;28;20026;-61
2023/06/01 04:29:24;;;;;;;27.45;12.93;;;;;;;;;;5011859;28;20032;-60
2023/06/01 04:31:50;;;;;;;27.25;13.07;;;;;;;;;;5011556;28;20101;-60
2023/06/01 04:34:17;;;;;;;23.60;12.57;;;;;;;;;;5011097;28;20029;-59
2023/06/01 04:36:44;;;;;;;21.60;12.38;;;;;;;;;;5011540;28;20014;-58
2023/06/01 04:39:10;;;;;;;24.83;12.50;;;;;;;;;;5012045;28;20113;-56
2023/06/01 04:41:36;;;;;;;25.15;13.50;;;;;;;;;;5011834;28;20065;-57
2023/06/01 04:44:06;;;;;;;22.10;12.50;;;;;;;;;;5011269;28;20035;-57
2023/06/01 04:46:32;;;;;;;23.42;11.98;;;;;;;;;;4994173;28;20454;-57
2023/06/01 04:49:00;;;;;;;25.13;12.93;;;;;;;;;;5011532;28;20475;-58
2023/06/01 04:51:30;;;;;;;26.10;13.68;;;;;;;;;;5015742;28;20046;-60
2023/06/01 04:53:57;;;;;;;24.60;12.98;;;;;;;;;;5013545;28;20101;-61
2023/06/01 04:56:29;;;;;;;24.30;12.93;;;;;;;;;;4994542;28;20536;-59
2023/06/01 04:58:56;;;;;;;21.88;12.38;;;;;;;;;;4993585;28;20482;-60
2023/06/01 05:01:25;;;;;;;22.92;12.48;;;;;;;;;;5014487;28;20111;-60
2023/06/01 05:03:52;;;;;;;25.83;13.15;;;;;;;;;;5013668;28;20025;-60
2023/06/01 05:06:20;;;;;;;24.90;14.05;;;;;;;;;;5015042;28;20183;-59
2023/06/01 05:08:46;;;;;;;22.20;13.27;;;;;;;;;;5015651;28;20052;-58
2023/06/01 05:11:12;;;;;;;22.38;13.68;;;;;;;;;;5015325;28;20477;-60
2023/06/01 05:13:39;;;;;;;29.98;15.95;;;;;;;;;;5015172;28;20540;-58
2023/06/01 05:16:06;;;;;;;24.33;14.73;;;;;;;;;;5014564;28;20386;-59
2023/06/01 05:18:32;;;;;;;26.42;14.75;;;;;;;;;;5015425;28;20425;-60
2023/06/01 05:20:58;;;;;;;29.33;16.40;;;;;;;;;;5015068;28;20497;-59
2023/06/01 05:23:25;;;;;;;23.92;14.13;;;;;;;;;;5015141;28;20469;-59
2023/06/01 05:25:52;;;;;;;29.35;15.75;;;;;;;;;;5014487;28;20048;-60
2023/06/01 05:28:19;;;;;;;25.05;14.65;;;;;;;;;;4997569;28;20034;-56
2023/06/01 05:30:45;;;;;;;23.77;15.18;;;;;;;;;;5015237;28;20133;-59
2023/06/01 05:33:11;;;;;;;22.92;14.23;;;;;;;;;;5014798;28;20057;-57
2023/06/01 05:35:37;;;;;;;24.85;14.48;;;;;;;;;;5014211;28;20022;-58
2023/06/01 05:38:03;;;;;;;21.65;14.10;;;;;;;;;;5014862;28;20120;-60
2023/06/01 05:40:29;;;;;;;26.67;15.35;;;;;;;;;;5014962;28;20033;-60
2023/06/01 05:42:55;;;;;;;22.02;15.10;;;;;;;;;;5014588;28;20114;-59
2023/06/01 05:45:21;;;;;;;23.58;14.73;;;;;;;;;;5007014;28;20159;-59
2023/06/01 05:47:47;;;;;;;23.50;14.75;;;;;;;;;;4984230;28;20057;-55
2023/06/01 05:50:13;;;;;;;31.80;18.70;;;;;;;;;;4994665;28;20093;-60
2023/06/01 05:52:42;;;;;;;25.63;15.20;;;;;;;;;;4994574;28;20054;-57
2023/06/01 05:55:08;;;;;;;24.23;15.82;;;;;;;;;;4992462;28;20022;-60
2023/06/01 05:57:34;;;;;;;27.70;15.45;;;;;;;;;;4994471;28;20109;-60
2023/06/01 06:00:00;;;;;;;23.80;13.48;;;;;;;;;;4977023;28;20034;-58
2023/06/01 06:02:26;;;;;;;25.40;14.40;;;;;;;;;;4992631;28;20022;-58
2023/06/01 06:04:52;;;;;;;22.75;14.63;;;;;;;;;;4993692;28;20443;-61
2023/06/01 06:07:18;;;;;;;24.98;14.90;;;;;;;;;;4994261;28;20089;-59
2023/06/01 06:09:44;;;;;;;28.23;17.70;;;;;;;;;;4994196;28;20449;-60
2023/06/01 06:12:10;;;;;;;27.20;15.13;;;;;;;;;;4993502;28;20022;-57
2023/06/01 06:14:36;;;;;;;24.25;14.70;;;;;;;;;;4993543;28;20022;-57
2023/06/01 06:17:02;;;;;;;26.63;15.57;;;;;;;;;;4994119;28;20034;-61
2023/06/01 06:19:28;;;;;;;22.77;15.82;;;;;;;;;;4994215;28;20018;-60
2023/06/01 06:21:55;;;;;;;25.50;15.38;;;;;;;;;;4993702;28;20390;-57
2023/06/01 06:24:21;;;;;;;29.35;16.17;;;;;;;;;;4993332;28;20030;-59
2023/06/01 06:26:47;;;;;;;25.33;15.48;;;;;;;;;;4993606;28;20344;-60
2023/06/01 06:29:13;;;;;;;27.35;16.08;;;;;;;;;;4993399;28;20129;-60
2023/06/01 06:31:39;;;;;;;30.63;17.25;;;;;;;;;;4993355;28;20502;-60
2023/06/01 06:34:05;;;;;;;25.98;16.25;;;;;;;;;;4992958;28;20060;-60
2023/06/01 06:36:31;;;;;;;26.33;16.65;;;;;;;;;;4993548;28;20027;-60
2023/06/01 06:38:57;;;;;;;35.40;20.05;;;;;;;;;;5073867;22;20048;-59
2023/06/01 06:41:24;;;;;;;28.88;16.98;;;;;;;;;;5078006;28;20044;-51
2023/06/01 06:43:50;;;;;;;45.33;20.98;;;;;;;;;;5085484;28;20059;-58
2023/06/01 06:46:16;;;;;;;32.95;17.80;;;;;;;;;;5077243;28;20538;-60
2023/06/01 06:48:42;;;;;;;29.85;16.38;;;;;;;;;;5094205;28;20107;-59
2023/06/01 06:51:08;;;;;;;27.45;16.15;;;;;;;;;;5093135;28;20465;-59
2023/06/01 06:53:34;;;;;;;27.75;16.95;;;;;;;;;;5092916;28;20020;-61
2023/06/01 06:56:00;;;;;;;25.35;15.95;;;;;;;;;;5091346;28;20050;-57
2023/06/01 06:58:26;;;;;;;28.63;17.15;;;;;;;;;;5090724;28;20107;-58
2023/06/01 07:00:52;;;;;;;27.48;15.00;;;;;;;;;;5095044;28;20020;-57
2023/06/01 07:03:18;;;;;;;25.10;16.20;;;;;;;;;;5098405;28;20024;-58
2023/06/01 07:05:47;;;;;;;26.27;15.70;;;;;;;;;;5095313;28;20012;-56
2023/06/01 07:08:14;;;;;;;26.55;16.08;;;;;;;;;;5095516;28;20024;-56
2023/06/01 07:10:40;;;;;;;28.73;17.52;;;;;;;;;;5096087;28;20099;-55
2023/06/01 07:13:06;;;;;;;28.33;16.35;;;;;;;;;;5093030;28;20043;-59
2023/06/01 07:15:32;;;;;;;24.92;16.73;;;;;;;;;;5091357;28;20512;-58
2023/06/01 07:17:58;;;;;;;25.13;14.85;;;;;;;;;;5092670;28;20028;-58
2023/06/01 07:20:24;;;;;;;27.98;15.55;;;;;;;;;;5092967;28;20028;-57
2023/06/01 07:22:51;;;;;;;27.23;15.73;;;;;;;;;;5091884;28;20024;-57
2023/06/01 07:25:16;;;;;;;25.52;16.75;;;;;;;;;;5090656;28;20024;-55
2023/06/01 07:27:43;;;;;;;24.67;14.35;;;;;;;;;;5093247;28;20027;-60
2023/06/01 07:30:10;;;;;;;24.92;15.10;;;;;;;;;;5091427;28;20391;-58
2023/06/01 07:32:36;;;;;;;24.83;15.70;;;;;;;;;;5092844;28;20073;-58
2023/06/01 07:35:04;;;;;;;28.23;15.88;;;;;;;;;;5090619;28;20028;-58
2023/06/01 07:37:31;;;;;;;26.63;15.13;;;;;;;;;;5091228;28;20447;-54
2023/06/01 07:39:57;;;;;;;27.52;14.55;;;;;;;;;;5092547;28;20070;-57
2023/06/01 07:42:23;;;;;;;25.80;14.68;;;;;;;;;;5092621;28;20062;-59
2023/06/01 07:44:50;;;;;;;27.23;15.93;;;;;;;;;;5090441;28;20088;-59
2023/06/01 07:47:16;;;;;;;25.40;14.88;;;;;;;;;;5080928;28;20028;-54
2023/06/01 07:49:42;;;;;;;26.13;15.30;;;;;;;;;;5070863;28;20024;-55
2023/06/01 07:52:08;;;;;;;27.42;14.70;;;;;;;;;;5072274;28;20083;-54
2023/06/01 07:54:38;;;;;;;24.55;15.10;;;;;;;;;;5071348;28;20099;-56
2023/06/01 07:57:04;;;;;;;26.33;14.25;;;;;;;;;;5071602;28;20504;-55
2023/06/01 07:59:31;;;;;;;26.50;15.20;;;;;;;;;;5072280;28;20481;-57
2023/06/01 08:01:58;;;;;;;26.27;14.43;;;;;;;;;;5071031;28;20048;-55
2023/06/01 08:04:26;;;;;;;25.67;14.07;;;;;;;;;;5072391;28;20048;-55
2023/06/01 08:06:52;;;;;;;25.15;13.52;;;;;;;;;;5083334;28;20422;-55
2023/06/01 08:09:20;;;;;;;27.17;15.65;;;;;;;;;;5093334;28;20447;-52
2023/06/01 08:11:46;;;;;;;21.67;14.63;;;;;;;;;;5100511;28;20016;-58
2023/06/01 08:14:13;;;;;;;25.70;14.45;;;;;;;;;;5090025;28;20566;-55
2023/06/01 08:16:39;;;;;;;22.15;14.20;;;;;;;;;;5088957;28;20028;-60
2023/06/01 08:19:05;;;;;;;22.83;14.43;;;;;;;;;;5091924;28;20030;-54
2023/06/01 08:21:31;;;;;;;25.08;14.07;;;;;;;;;;5085953;28;20025;-57
2023/06/01 08:23:57;;;;;;;26.95;14.38;;;;;;;;;;5100472;28;20027;-59
2023/06/01 08:26:25;;;;;;;24.85;14.70;;;;;;;;;;5108090;28;20031;-56
2023/06/01 08:28:53;;;;;;;24.17;15.55;;;;;;;;;;5112421;28;20024;-58
2023/06/01 08:31:20;;;;;;;23.40;14.93;;;;;;;;;;5111071;28;20399;-57
2023/06/01 08:33:46;;;;;;;24.23;14.80;;;;;;;;;;5111818;28;20104;-55
2023/06/01 08:36:12;;;;;;;23.85;15.10;;;;;;;;;;5101469;28;20035;-57
2023/06/01 08:38:39;;;;;;;25.33;15.40;;;;;;;;;;5101753;28;20043;-58
2023/06/01 08:41:09;;;;;;;24.58;15.35;;;;;;;;;;5113395;28;20140;-52
2023/06/01 08:43:38;;;;;;;26.52;15.02;;;;;;;;;;5102846;28;20016;-53
2023/06/01 08:46:05;;;;;;;22.42;14.70;;;;;;;;;;5112648;28;20019;-53
2023/06/01 08:48:32;;;;;;;26.10;15.18;;;;;;;;;;5092332;28;20020;-54
2023/06/01 08:50:59;;;;;;;21.85;13.57;;;;;;;;;;5098512;28;20028;-52
2023/06/01 08:53:27;;;;;;;22.60;15.10;;;;;;;;;;5108587;28;20368;-57
2023/06/01 08:55:53;;;;;;;;;;;;;;;;;;5111866;28;20457;-58
2023/06/01 08:58:19;;;;;;;24.08;14.13;;;;;;;;;;5112197;28;19911;-55
2023/06/01 09:00:55;;;;;;;21.23;14.00;;;;;;;;;;5112084;28;20027;-56
2023/06/01 09:03:21;;;;;;;27.30;17.30;;;;;;;;;;5111932;28;20042;-56
2023/06/01 09:05:47;;;;;;;23.92;14.57;;;;;;;;;;5110820;28;20100;-57
2023/06/01 09:08:13;;;;;;;25.70;15.90;;;;;;;;;;5113426;28;20032;-56
2023/06/01 09:10:40;;;;;;;23.23;14.18;;;;;;;;;;5112341;28;20023;-54
2023/06/01 09:13:06;;;;;;;26.00;15.65;;;;;;;;;;5112161;28;20076;-56
2023/06/01 09:15:32;;;;;;;23.27;15.10;;;;;;;;;;5111044;28;20027;-53
2023/06/01 09:18:06;;;;;;;24.40;13.55;;;;;;;;;;5110155;28;20024;-54
2023/06/01 09:20:32;;;;;;;24.42;14.25;;;;;;;;;;5110686;28;20023;-53
2023/06/01 09:22:58;;;;;;;23.48;14.63;;;;;;;;;;5110698;28;20028;-58
2023/06/01 09:25:28;;;;;;;22.65;14.13;;;;;;;;;;5111402;28;20027;-58
2023/06/01 09:27:54;;;;;;;24.10;14.98;;;;;;;;;;5112052;28;20080;-57
2023/06/01 09:30:21;;;;;;;24.17;14.40;;;;;;;;;;5110706;28;20024;-56
2023/06/01 09:32:50;;;;;;;29.48;15.00;;;;;;;;;;5111813;28;20103;-61
2023/06/01 09:35:35;;;;;;;24.67;15.18;;;;;;;;;;5111392;28;20099;-57
2023/06/01 09:38:03;;;;;;;23.13;15.40;;;;;;;;;;5111410;28;20027;-57
2023/06/01 09:40:29;;;;;;;23.50;14.45;;;;;;;;;;5111656;28;20077;-53
2023/06/01 09:42:56;;;;;;;22.05;15.60;;;;;;;;;;5111319;28;20027;-54
2023/06/01 09:45:23;;;;;;;24.65;14.15;;;;;;;;;;5111129;28;20050;-56
2023/06/01 09:47:50;;;;;;;23.33;14.18;;;;;;;;;;5100167;28;20055;-58
2023/06/01 09:50:34;;;;;;;27.13;14.85;;;;;;;;;;5094777;28;20024;-56
2023/06/01 09:53:01;;;;;;;22.65;14.10;;;;;;;;;;5095360;28;20028;-53
2023/06/01 09:55:26;;;;;;;21.23;13.35;;;;;;;;;;5094552;28;20095;-57
2023/06/01 09:57:52;;;;;;;23.48;14.23;;;;;;;;;;5095005;28;20052;-56
2023/06/01 10:00:24;;;;;;;21.52;13.50;;;;;;;;;;5095404;28;20111;-58
2023/06/01 10:02:51;;;;;;;21.65;13.77;;;;;;;;;;5094838;28;20050;-59
2023/06/01 10:05:17;;;;;;;21.65;13.45;;;;;;;;;;5094226;28;20104;-57
2023/06/01 10:07:44;;;;;;;21.90;14.02;;;;;;;;;;5094899;28;20056;-56
2023/06/01 10:10:13;;;;;;;22.35;14.18;;;;;;;;;;5095585;28;20028;-52
2023/06/01 10:12:39;;;;;;;22.88;14.25;;;;;;;;;;5095351;28;20137;-59
2023/06/01 10:15:06;;;;;;;23.20;13.70;;;;;;;;;;5095185;28;20046;-55
2023/06/01 10:17:33;;;;;;;24.75;14.07;;;;;;;;;;5094309;28;20021;-57
2023/06/01 10:19:59;;;;;;;23.15;13.90;;;;;;;;;;5087937;28;20024;-53
2023/06/01 10:22:25;;;;;;;22.30;14.48;;;;;;;;;;5092907;28;20032;-55
2023/06/01 10:24:55;;;;;;;20.23;13.32;;;;;;;;;;5092799;28;20024;-54
2023/06/01 10:27:36;;;;;;;19.08;13.07;;;;;;;;;;5091974;28;20546;-54
2023/06/01 10:30:02;;;;;;;24.17;14.40;;;;;;;;;;5093715;28;20032;-54
2023/06/01 10:32:37;;;;;;;22.95;14.30;;;;;;;;;;5093234;28;20364;-55
2023/06/01 10:35:07;;;;;;;22.85;13.23;;;;;;;;;;5092007;28;20050;-54
2023/06/01 10:37:33;;;;;;;19.90;12.95;;;;;;;;;;5093554;28;20709;-54
2023/06/01 10:40:32;;;;;;;23.10;14.10;;;;;;;;;;5093277;28;20039;-52
2023/06/01 10:42:57;;;;;;;;;;;;;;;;;;5050086;28;20119;-54
2023/06/01 10:45:42;;;;;;;23.45;14.18;;;;;;;;;;5093704;28;19934;-52
2023/06/01 10:48:12;;;;;;;22.33;14.43;;;;;;;;;;5094142;28;20024;-52
2023/06/01 10:50:41;;;;;;;22.63;14.27;;;;;;;;;;5093684;28;20039;-52
2023/06/01 10:53:27;;;;;;;23.65;14.18;;;;;;;;;;5094276;28;20020;-58
2023/06/01 10:56:12;;;;;;;22.90;13.80;;;;;;;;;;5092002;28;20024;-51
2023/06/01 10:58:38;;;;;;;22.58;13.98;;;;;;;;;;5083272;28;20036;-56
2023/06/01 11:01:06;;;;;;;24.38;14.40;;;;;;;;;;5095489;28;20028;-58
2023/06/01 11:03:32;;;;;;;;;;;;;;;;;;5105891;28;20023;-52
2023/06/01 11:05:58;;;;;;;21.60;12.93;;;;;;;;;;5106983;28;20371;-52
2023/06/01 11:08:28;;;;;;;19.08;12.90;;;;;;;;;;5106865;28;20031;-54
2023/06/01 11:10:54;;;;;;;22.80;13.32;;;;;;;;;;5113613;28;20330;-53
2023/06/01 11:13:27;;;;;;;19.25;12.73;;;;;;;;;;5100751;28;20050;-53
2023/06/01 11:16:21;;;;;;;22.00;13.05;;;;;;;;;;5093104;28;20013;-53
2023/06/01 11:19:00;;;;;;;19.83;12.73;;;;;;;;;;5093267;28;20024;-55
2023/06/01 11:21:40;;;;;;;20.33;12.98;;;;;;;;;;5093040;28;20506;-58
2023/06/01 11:24:08;;;;;;;22.40;13.07;;;;;;;;;;5093558;28;20028;-57
2023/06/01 11:26:36;;;;;;;22.20;12.85;;;;;;;;;;5102465;28;20024;-53
2023/06/01 11:29:08;;;;;;;24.30;12.95;;;;;;;;;;5107121;28;20035;-57
2023/06/01 11:31:36;;;;;;;23.33;13.82;;;;;;;;;;5104088;28;20028;-61
2023/06/01 11:34:02;;;;;;;20.40;12.57;;;;;;;;;;5096618;28;20039;-59
2023/06/01 11:36:28;;;;;;;19.50;12.52;;;;;;;;;;5093099;28;20266;-59
2023/06/01 11:38:58;;;;;;;20.77;13.02;;;;;;;;;;5093056;28;20054;-60
2023/06/01 11:41:24;;;;;;;19.35;12.10;;;;;;;;;;5093434;28;20023;-59
2023/06/01 11:43:58;;;;;;;21.02;12.98;;;;;;;;;;5092392;28;20024;-61
2023/06/01 11:46:24;;;;;;;20.83;13.50;;;;;;;;;;5089654;28;20116;-59
2023/06/01 11:49:06;;;;;;;24.63;12.68;;;;;;;;;;5070973;28;20028;-59
2023/06/01 11:51:34;;;;;;;25.63;13.30;;;;;;;;;;5071398;28;20522;-59
2023/06/01 11:54:03;;;;;;;22.00;12.40;;;;;;;;;;5072265;28;20086;-61
2023/06/01 11:56:30;;;;;;;24.50;15.10;;;;;;;;;;5070807;28;20263;-60
2023/06/01 11:59:00;;;;;;;22.35;14.55;;;;;;;;;;5072342;28;20412;-62
2023/06/01 12:01:26;;;;;;;23.42;14.18;;;;;;;;;;5071234;28;20031;-60
2023/06/01 12:03:53;;;;;;;24.25;13.77;;;;;;;;;;5070952;28;20032;-64
2023/06/01 12:06:20;;;;;;;20.85;12.82;;;;;;;;;;5069579;28;20127;-57
2023/06/01 12:08:47;;;;;;;20.15;13.05;;;;;;;;;;5071143;28;20032;-61
2023/06/01 12:11:16;;;;;;;20.15;12.52;;;;;;;;;;5070650;28;20456;-61
2023/06/01 12:13:42;;;;;;;20.83;13.35;;;;;;;;;;5069952;28;20381;-61
2023/06/01 12:16:08;;;;;;;21.92;13.50;;;;;;;;;;5068209;28;20491;-59
2023/06/01 12:18:34;;;;;;;20.90;13.75;;;;;;;;;;5070026;28;20021;-61
2023/06/01 12:21:08;;;;;;;20.80;13.32;;;;;;;;;;5072930;28;20023;-61
2023/06/01 12:23:35;;;;;;;21.23;12.52;;;;;;;;;;5072682;28;20020;-61
2023/06/01 12:26:01;;;;;;;18.50;11.68;;;;;;;;;;5073418;28;20032;-59
2023/06/01 12:28:31;;;;;;;19.75;13.25;;;;;;;;;;5071802;28;20024;-62
2023/06/01 12:31:17;;;;;;;19.40;12.52;;;;;;;;;;5072241;28;20027;-62
2023/06/01 12:33:44;;;;;;;18.58;12.55;;;;;;;;;;5071990;28;20115;-62
2023/06/01 12:36:12;;;;;;;20.92;13.02;;;;;;;;;;5071441;28;20017;-57
2023/06/01 12:38:50;;;;;;;17.88;12.27;;;;;;;;;;5079250;23;20412;-57
2023/06/01 12:41:17;;;;;;;20.30;13.30;;;;;;;;;;5051217;28;20025;-55
2023/06/01 12:43:46;;;;;;;19.65;12.85;;;;;;;;;;5051340;28;20029;-53
2023/06/01 12:46:20;;;;;;;19.45;13.10;;;;;;;;;;5048700;28;20024;-54
2023/06/01 12:48:49;;;;;;;19.13;13.45;;;;;;;;;;5050874;28;20021;-55
2023/06/01 12:51:15;;;;;;;20.42;13.15;;;;;;;;;;5050012;28;20483;-52
2023/06/01 12:53:45;;;;;;;20.77;13.18;;;;;;;;;;5049621;28;20115;-52
2023/06/01 12:56:12;;;;;;;18.33;13.45;;;;;;;;;;5050134;28;20032;-56
2023/06/01 12:58:38;;;;;;;19.90;13.30;;;;;;;;;;5049553;28;20032;-54
2023/06/01 13:01:05;;;;;;;18.38;12.93;;;;;;;;;;5050731;28;20025;-52
2023/06/01 13:03:31;;;;;;;19.23;13.73;;;;;;;;;;5050909;28;20025;-58
2023/06/01 13:05:57;;;;;;;17.83;12.70;;;;;;;;;;5049109;28;20143;-56
2023/06/01 13:08:23;;;;;;;18.52;12.80;;;;;;;;;;5050779;28;20036;-53
2023/06/01 13:10:50;;;;;;;18.98;13.55;;;;;;;;;;5050716;28;20021;-56
2023/06/01 13:13:16;;;;;;;18.48;12.85;;;;;;;;;;5049815;28;20025;-55
2023/06/01 13:15:44;;;;;;;17.10;12.57;;;;;;;;;;5049054;28;20021;-55
2023/06/01 13:18:10;;;;;;;17.40;12.45;;;;;;;;;;5049200;28;20025;-54
2023/06/01 13:20:36;;;;;;;18.15;12.38;;;;;;;;;;5050829;28;20033;-53
2023/06/01 13:23:03;;;;;;;16.88;12.60;;;;;;;;;;5054001;28;20035;-54
2023/06/01 13:25:30;;;;;;;17.38;12.70;;;;;;;;;;5053938;28;20428;-58
2023/06/01 13:27:56;;;;;;;16.80;11.93;;;;;;;;;;5054633;28;20025;-56
2023/06/01 13:30:22;;;;;;;16.63;12.15;;;;;;;;;;5054217;28;20056;-56
2023/06/01 13:32:48;;;;;;;18.42;12.98;;;;;;;;;;5054625;28;20025;-53
2023/06/01 13:35:14;;;;;;;17.73;14.20;;;;;;;;;;5053768;28;20477;-53
2023/06/01 13:37:40;;;;;;;17.95;14.05;;;;;;;;;;5051927;28;20101;-56
2023/06/01 13:40:07;;;;;;;17.92;14.07;;;;;;;;;;5065087;28;20051;-57
2023/06/01 13:42:33;;;;;;;17.35;14.50;;;;;;;;;;5058408;28;20028;-58
2023/06/01 13:44:59;;;;;;;19.02;15.38;;;;;;;;;;5061664;28;20025;-58
2023/06/01 13:47:25;;;;;;;18.92;13.85;;;;;;;;;;5059612;28;20492;-56
2023/06/01 13:49:52;;;;;;;18.80;14.75;;;;;;;;;;5053194;28;20465;-59
2023/06/01 13:52:18;;;;;;;18.67;14.20;;;;;;;;;;5054224;28;20055;-56
2023/06/01 13:54:44;;;;;;;17.42;13.57;;;;;;;;;;5053350;28;20017;-56
2023/06/01 13:57:10;;;;;;;18.60;14.23;;;;;;;;;;5054160;28;20083;-60
2023/06/01 13:59:37;;;;;;;17.48;13.63;;;;;;;;;;5053728;28;20025;-57
2023/06/01 14:02:03;;;;;;;16.05;13.25;;;;;;;;;;5053591;28;20425;-57
2023/06/01 14:04:30;;;;;;;17.38;13.35;;;;;;;;;;5052661;28;20058;-56
2023/06/01 14:06:56;;;;;;;16.15;13.43;;;;;;;;;;5053834;28;20040;-59
2023/06/01 14:09:22;;;;;;;16.98;13.30;;;;;;;;;;5053696;28;20128;-59
2023/06/01 14:11:48;;;;;;;17.73;14.15;;;;;;;;;;5053805;28;20017;-55
2023/06/01 14:14:15;;;;;;;18.55;13.20;;;;;;;;;;5048070;28;20075;-59
2023/06/01 14:16:40;;;;;;;17.75;13.05;;;;;;;;;;5057271;28;20024;-53
2023/06/01 14:19:06;;;;;;;16.90;13.18;;;;;;;;;;5065060;28;20440;-56
2023/06/01 14:21:34;;;;;;;16.90;13.02;;;;;;;;;;5062397;28;20021;-59
2023/06/01 14:24:00;;;;;;;17.80;13.33;;;;;;;;;;5062085;28;20020;-60